sensor_id;sensor_type;location;lat;lon;timestamp;temperature;humidity
14749;DHT22;7466;53.574;9.976;2023-06-10T00:01:45;14.70;99.90
14749;DHT22;7466;53.574;9.976;2023-06-10T00:04:13;14.60;99.90
14749;DHT22;7466;53.574;9.976;2023-06-10T00:06:40;14.60;99.90
14749;DHT22;7466;53.574;9.976;2023-06-10T00:09:07;14.60;99.90
14749;DHT22;7466;53.574;9.976;2023-06-10T00:11:35;14.50;99.90
14749;DHT22;7466;53.574;9.976;2023-06-10T00:14:03;14.40;99.90
14749;DHT22;7466;53.574;9.976;2023-06-10T00:16:31;14.40;99.90
14749;DHT22;7466;53.574;9.976;2023-06-10T00:18:59;14.30;99.90
14749;DHT22;7466;53.574;9.976;2023-06-10T00:21:26;14.30;99.90
14749;DHT22;7466;53.574;9.976;2023-06-10T00:23:53;14.20;99.90
14749;DHT22;7466;53.574;9.976;2023-06-10T00:26:21;14.20;99.90
14749;DHT22;7466;53.574;9.976;2023-06-10T00:28:48;14.20;99.90
14749;DHT22;7466;53.574;9.976;2023-06-10T00:31:14;14.20;99.90
14749;DHT22;7466;53.574;9.976;2023-06-10T00:33:43;14.10;99.90
14749;DHT22;7466;53.574;9.976;2023-06-10T00:36:09;14.00;99.90
14749;DHT22;7466;53.574;9.976;2023-06-10T00:38:37;14.00;99.90
14749;DHT22;7466;53.574;9.976;2023-06-10T00:41:03;14.00;99.90
14749;DHT22;7466;53.574;9.976;2023-06-10T00:43:30;14.00;99.90
14749;DHT22;7466;53.574;9.976;2023-06-10T00:45:57;13.90;99.90
14749;DHT22;7466;53.574;9.976;2023-06-10T00:48:25;13.90;99.90
14749;DHT22;7466;53.574;9.976;2023-06-10T00:50:53;13.90;99.90
14749;DHT22;7466;53.574;9.976;2023-06-10T00:53:21;13.90;99.90
14749;DHT22;7466;53.574;9.976;2023-06-10T00:55:48;13.90;99.90
14749;DHT22;7466;53.574;9.976;2023-06-10T00:58:15;13.80;99.90
14749;DHT22;7466;53.574;9.976;2023-06-10T01:00:42;13.70;99.90
14749;DHT22;7466;53.574;9.976;2023-06-10T01:03:10;13.70;99.90
14749;DHT22;7466;53.574;9.976;2023-06-10T01:05:38;13.70;99.90
14749;DHT22;7466;53.574;9.976;2023-06-10T01:08:26;13.70;99.90
14749;DHT22;7466;53.574;9.976;2023-06-10T01:10:59;13.70;99.90
14749;DHT22;7466;53.574;9.976;2023-06-10T01:13:27;13.70;99.90
14749;DHT22;7466;53.574;9.976;2023-06-10T01:15:56;13.70;99.90
14749;DHT22;7466;53.574;9.976;2023-06-10T01:18:23;13.70;99.90
14749;DHT22;7466;53.574;9.976;2023-06-10T01:20:50;13.70;99.90
14749;DHT22;7466;53.574;9.976;2023-06-10T01:23:19;13.60;99.90
14749;DHT22;7466;53.574;9.976;2023-06-10T01:25:47;13.60;99.90
14749;DHT22;7466;53.574;9.976;2023-06-10T01:28:33;13.50;99.90
14749;DHT22;7466;53.574;9.976;2023-06-10T01:31:07;13.50;99.90
14749;DHT22;7466;53.574;9.976;2023-06-10T01:33:46;13.50;99.90
14749;DHT22;7466;53.574;9.976;2023-06-10T01:36:15;13.40;99.90
14749;DHT22;7466;53.574;9.976;2023-06-10T01:38:46;13.40;99.90
14749;DHT22;7466;53.574;9.976;2023-06-10T01:41:15;13.40;99.90
14749;DHT22;7466;53.574;9.976;2023-06-10T01:43:43;13.30;99.90
14749;DHT22;7466;53.574;9.976;2023-06-10T01:46:10;13.30;99.90
14749;DHT22;7466;53.574;9.976;2023-06-10T01:48:37;13.30;99.90
14749;DHT22;7466;53.574;9.976;2023-06-10T01:51:04;13.30;99.90
14749;DHT22;7466;53.574;9.976;2023-06-10T01:53:31;13.30;99.90
14749;DHT22;7466;53.574;9.976;2023-06-10T01:55:59;13.30;99.90
14749;DHT22;7466;53.574;9.976;2023-06-10T01:58:26;13.30;99.90
14749;DHT22;7466;53.574;9.976;2023-06-10T02:00:53;13.20;99.90
14749;DHT22;7466;53.574;9.976;2023-06-10T02:03:20;13.30;99.90
14749;DHT22;7466;53.574;9.976;2023-06-10T02:05:47;13.20;99.90
14749;DHT22;7466;53.574;9.976;2023-06-10T02:08:13;13.20;99.90
14749;DHT22;7466;53.574;9.976;2023-06-10T02:10:40;13.20;99.90
14749;DHT22;7466;53.574;9.976;2023-06-10T02:13:08;13.20;99.90
14749;DHT22;7466;53.574;9.976;2023-06-10T02:15:35;13.10;99.90
14749;DHT22;7466;53.574;9.976;2023-06-10T02:18:02;13.10;99.90
14749;DHT22;7466;53.574;9.976;2023-06-10T02:20:29;13.10;99.90
14749;DHT22;7466;53.574;9.976;2023-06-10T02:22:56;13.10;99.90
14749;DHT22;7466;53.574;9.976;2023-06-10T02:25:23;13.00;99.90
14749;DHT22;7466;53.574;9.976;2023-06-10T02:27:49;13.00;99.90
14749;DHT22;7466;53.574;9.976;2023-06-10T02:30:18;13.10;99.90
14749;DHT22;7466;53.574;9.976;2023-06-10T02:32:44;13.10;99.90
14749;DHT22;7466;53.574;9.976;2023-06-10T02:35:13;13.00;99.90
14749;DHT22;7466;53.574;9.976;2023-06-10T02:37:40;13.00;99.90
14749;DHT22;7466;53.574;9.976;2023-06-10T02:40:08;13.00;99.90
14749;DHT22;7466;53.574;9.976;2023-06-10T02:42:35;12.90;99.90
14749;DHT22;7466;53.574;9.976;2023-06-10T02:45:02;12.90;99.90
14749;DHT22;7466;53.574;9.976;2023-06-10T02:47:31;13.00;99.90
14749;DHT22;7466;53.574;9.976;2023-06-10T02:49:58;12.90;99.90
14749;DHT22;7466;53.574;9.976;2023-06-10T02:52:24;13.00;99.90
14749;DHT22;7466;53.574;9.976;2023-06-10T02:54:51;13.00;99.90
14749;DHT22;7466;53.574;9.976;2023-06-10T02:57:18;13.00;99.90
14749;DHT22;7466;53.574;9.976;2023-06-10T02:59:45;13.00;99.90
14749;DHT22;7466;53.574;9.976;2023-06-10T03:02:12;13.00;99.90
14749;DHT22;7466;53.574;9.976;2023-06-10T03:04:40;13.00;99.90
14749;DHT22;7466;53.574;9.976;2023-06-10T03:07:09;12.90;99.90
14749;DHT22;7466;53.574;9.976;2023-06-10T03:09:36;12.90;99.90
14749;DHT22;7466;53.574;9.976;2023-06-10T03:12:04;13.00;99.90
14749;DHT22;7466;53.574;9.976;2023-06-10T03:14:31;13.00;99.90
14749;DHT22;7466;53.574;9.976;2023-06-10T03:16:58;13.00;99.90
14749;DHT22;7466;53.574;9.976;2023-06-10T03:19:25;12.90;99.90
14749;DHT22;7466;53.574;9.976;2023-06-10T03:22:07;13.00;99.90
14749;DHT22;7466;53.574;9.976;2023-06-10T03:24:34;13.00;99.90
14749;DHT22;7466;53.574;9.976;2023-06-10T03:27:02;12.90;99.90
14749;DHT22;7466;53.574;9.976;2023-06-10T03:29:30;12.90;99.90
14749;DHT22;7466;53.574;9.976;2023-06-10T03:31:57;12.90;99.90
14749;DHT22;7466;53.574;9.976;2023-06-10T03:34:24;13.00;99.90
14749;DHT22;7466;53.574;9.976;2023-06-10T03:36:51;12.90;99.90
14749;DHT22;7466;53.574;9.976;2023-06-10T03:39:19;12.90;99.90
14749;DHT22;7466;53.574;9.976;2023-06-10T03:41:46;13.00;99.90
14749;DHT22;7466;53.574;9.976;2023-06-10T03:44:14;12.90;99.90
14749;DHT22;7466;53.574;9.976;2023-06-10T03:46:41;12.90;99.90
14749;DHT22;7466;53.574;9.976;2023-06-10T03:49:08;13.00;99.90
14749;DHT22;7466;53.574;9.976;2023-06-10T03:51:35;13.00;99.90
14749;DHT22;7466;53.574;9.976;2023-06-10T03:54:02;13.00;99.90
14749;DHT22;7466;53.574;9.976;2023-06-10T03:56:31;13.10;99.90
14749;DHT22;7466;53.574;9.976;2023-06-10T03:58:58;13.10;99.90
14749;DHT22;7466;53.574;9.976;2023-06-10T04:01:24;13.20;99.90
14749;DHT22;7466;53.574;9.976;2023-06-10T04:03:52;13.20;99.90
14749;DHT22;7466;53.574;9.976;2023-06-10T04:06:19;13.20;99.90
14749;DHT22;7466;53.574;9.976;2023-06-10T04:08:48;13.30;99.90
14749;DHT22;7466;53.574;9.976;2023-06-10T04:11:14;13.30;99.90
14749;DHT22;7466;53.574;9.976;2023-06-10T04:13:43;13.30;99.90
14749;DHT22;7466;53.574;9.976;2023-06-10T04:16:09;13.40;99.90
14749;DHT22;7466;53.574;9.976;2023-06-10T04:18:37;13.40;99.90
14749;DHT22;7466;53.574;9.976;2023-06-10T04:21:03;13.40;99.90
14749;DHT22;7466;53.574;9.976;2023-06-10T04:23:30;13.40;99.90
14749;DHT22;7466;53.574;9.976;2023-06-10T04:25:57;13.50;99.90
14749;DHT22;7466;53.574;9.976;2023-06-10T04:28:25;13.60;99.90
14749;DHT22;7466;53.574;9.976;2023-06-10T04:30:53;13.60;99.90
14749;DHT22;7466;53.574;9.976;2023-06-10T04:33:20;13.70;99.90
14749;DHT22;7466;53.574;9.976;2023-06-10T04:35:47;13.70;99.90
14749;DHT22;7466;53.574;9.976;2023-06-10T04:38:14;13.80;99.90
14749;DHT22;7466;53.574;9.976;2023-06-10T04:40:41;13.80;99.90
14749;DHT22;7466;53.574;9.976;2023-06-10T04:43:07;13.90;99.90
14749;DHT22;7466;53.574;9.976;2023-06-10T04:45:34;13.90;99.90
14749;DHT22;7466;53.574;9.976;2023-06-10T04:48:02;14.00;99.90
14749;DHT22;7466;53.574;9.976;2023-06-10T04:50:29;14.00;99.90
14749;DHT22;7466;53.574;9.976;2023-06-10T04:52:58;14.10;99.90
14749;DHT22;7466;53.574;9.976;2023-06-10T04:55:25;14.10;99.90
14749;DHT22;7466;53.574;9.976;2023-06-10T04:57:52;14.20;99.90
14749;DHT22;7466;53.574;9.976;2023-06-10T05:00:19;14.30;99.90
14749;DHT22;7466;53.574;9.976;2023-06-10T05:02:46;14.30;99.90
14749;DHT22;7466;53.574;9.976;2023-06-10T05:05:16;14.30;99.90
14749;DHT22;7466;53.574;9.976;2023-06-10T05:07:43;14.40;99.90
14749;DHT22;7466;53.574;9.976;2023-06-10T05:10:10;14.50;99.90
14749;DHT22;7466;53.574;9.976;2023-06-10T05:12:37;14.50;99.90
14749;DHT22;7466;53.574;9.976;2023-06-10T05:15:05;14.50;99.90
14749;DHT22;7466;53.574;9.976;2023-06-10T05:17:32;14.70;99.90
14749;DHT22;7466;53.574;9.976;2023-06-10T05:20:00;14.70;99.90
14749;DHT22;7466;53.574;9.976;2023-06-10T05:22:28;14.70;99.90
14749;DHT22;7466;53.574;9.976;2023-06-10T05:24:55;14.70;99.90
14749;DHT22;7466;53.574;9.976;2023-06-10T05:27:22;14.80;99.90
14749;DHT22;7466;53.574;9.976;2023-06-10T05:29:50;14.90;99.90
14749;DHT22;7466;53.574;9.976;2023-06-10T05:32:17;15.00;99.90
14749;DHT22;7466;53.574;9.976;2023-06-10T05:34:43;15.10;99.90
14749;DHT22;7466;53.574;9.976;2023-06-10T05:37:10;15.10;99.90
14749;DHT22;7466;53.574;9.976;2023-06-10T05:39:39;15.20;99.90
14749;DHT22;7466;53.574;9.976;2023-06-10T05:42:07;15.30;99.90
14749;DHT22;7466;53.574;9.976;2023-06-10T05:44:34;15.40;99.90
14749;DHT22;7466;53.574;9.976;2023-06-10T05:47:01;15.50;99.90
14749;DHT22;7466;53.574;9.976;2023-06-10T05:49:28;15.50;99.90
14749;DHT22;7466;53.574;9.976;2023-06-10T05:51:55;15.50;99.90
14749;DHT22;7466;53.574;9.976;2023-06-10T05:54:24;15.60;99.90
14749;DHT22;7466;53.574;9.976;2023-06-10T05:56:52;15.70;99.90
14749;DHT22;7466;53.574;9.976;2023-06-10T05:59:19;15.70;99.90
14749;DHT22;7466;53.574;9.976;2023-06-10T06:01:45;15.80;99.90
14749;DHT22;7466;53.574;9.976;2023-06-10T06:04:12;15.90;99.90
14749;DHT22;7466;53.574;9.976;2023-06-10T06:06:39;15.90;99.90
14749;DHT22;7466;53.574;9.976;2023-06-10T06:09:06;15.90;99.90
14749;DHT22;7466;53.574;9.976;2023-06-10T06:11:34;16.00;99.90
14749;DHT22;7466;53.574;9.976;2023-06-10T06:14:02;16.10;99.90
14749;DHT22;7466;53.574;9.976;2023-06-10T06:16:29;16.10;99.90
14749;DHT22;7466;53.574;9.976;2023-06-10T06:18:56;16.30;99.90
14749;DHT22;7466;53.574;9.976;2023-06-10T06:21:22;16.30;99.90
14749;DHT22;7466;53.574;9.976;2023-06-10T06:23:49;16.40;99.90
14749;DHT22;7466;53.574;9.976;2023-06-10T06:26:16;16.50;99.90
14749;DHT22;7466;53.574;9.976;2023-06-10T06:28:43;16.70;99.90
14749;DHT22;7466;53.574;9.976;2023-06-10T06:31:11;16.70;99.90
14749;DHT22;7466;53.574;9.976;2023-06-10T06:33:38;16.90;99.90
14749;DHT22;7466;53.574;9.976;2023-06-10T06:36:05;16.90;99.90
14749;DHT22;7466;53.574;9.976;2023-06-10T06:38:32;17.00;99.90
14749;DHT22;7466;53.574;9.976;2023-06-10T06:40:59;17.10;99.90
14749;DHT22;7466;53.574;9.976;2023-06-10T06:43:28;17.30;99.90
14749;DHT22;7466;53.574;9.976;2023-06-10T06:45:56;17.40;99.90
14749;DHT22;7466;53.574;9.976;2023-06-10T06:48:24;17.50;99.90
14749;DHT22;7466;53.574;9.976;2023-06-10T06:50:52;17.40;99.90
14749;DHT22;7466;53.574;9.976;2023-06-10T06:53:19;17.70;99.90
14749;DHT22;7466;53.574;9.976;2023-06-10T06:55:46;17.50;99.90
14749;DHT22;7466;53.574;9.976;2023-06-10T06:58:12;17.60;99.90
14749;DHT22;7466;53.574;9.976;2023-06-10T07:00:39;17.70;99.90
14749;DHT22;7466;53.574;9.976;2023-06-10T07:03:06;17.80;99.90
14749;DHT22;7466;53.574;9.976;2023-06-10T07:05:34;17.90;99.90
14749;DHT22;7466;53.574;9.976;2023-06-10T07:08:01;17.90;99.90
14749;DHT22;7466;53.574;9.976;2023-06-10T07:10:30;18.20;99.90
14749;DHT22;7466;53.574;9.976;2023-06-10T07:12:57;18.30;99.90
14749;DHT22;7466;53.574;9.976;2023-06-10T07:15:24;18.40;99.90
14749;DHT22;7466;53.574;9.976;2023-06-10T07:17:50;18.70;99.90
14749;DHT22;7466;53.574;9.976;2023-06-10T07:20:17;19.00;99.90
14749;DHT22;7466;53.574;9.976;2023-06-10T07:22:46;19.10;99.90
14749;DHT22;7466;53.574;9.976;2023-06-10T07:25:12;19.00;99.90
14749;DHT22;7466;53.574;9.976;2023-06-10T07:27:41;19.00;99.90
14749;DHT22;7466;53.574;9.976;2023-06-10T07:30:08;18.90;99.90
14749;DHT22;7466;53.574;9.976;2023-06-10T07:32:36;18.90;99.90
14749;DHT22;7466;53.574;9.976;2023-06-10T07:35:05;18.80;99.90
14749;DHT22;7466;53.574;9.976;2023-06-10T07:37:32;19.10;99.90
14749;DHT22;7466;53.574;9.976;2023-06-10T07:40:00;19.20;99.90
14749;DHT22;7466;53.574;9.976;2023-06-10T07:42:27;19.30;99.90
14749;DHT22;7466;53.574;9.976;2023-06-10T07:44:54;19.40;99.90
14749;DHT22;7466;53.574;9.976;2023-06-10T07:47:22;19.40;99.90
14749;DHT22;7466;53.574;9.976;2023-06-10T07:49:48;19.60;99.90
14749;DHT22;7466;53.574;9.976;2023-06-10T07:52:15;19.30;99.90
14749;DHT22;7466;53.574;9.976;2023-06-10T07:54:42;19.50;99.90
14749;DHT22;7466;53.574;9.976;2023-06-10T07:57:10;19.40;99.90
14749;DHT22;7466;53.574;9.976;2023-06-10T07:59:37;19.50;99.90
14749;DHT22;7466;53.574;9.976;2023-06-10T08:02:04;19.80;99.90
14749;DHT22;7466;53.574;9.976;2023-06-10T08:04:32;20.10;99.90
14749;DHT22;7466;53.574;9.976;2023-06-10T08:07:00;20.20;99.90
14749;DHT22;7466;53.574;9.976;2023-06-10T08:09:28;20.10;99.90
14749;DHT22;7466;53.574;9.976;2023-06-10T08:11:54;20.20;99.90
14749;DHT22;7466;53.574;9.976;2023-06-10T08:14:23;20.30;99.90
14749;DHT22;7466;53.574;9.976;2023-06-10T08:16:50;20.60;99.90
14749;DHT22;7466;53.574;9.976;2023-06-10T08:19:16;20.70;99.90
14749;DHT22;7466;53.574;9.976;2023-06-10T08:21:50;20.70;99.90
14749;DHT22;7466;53.574;9.976;2023-06-10T08:24:16;20.70;99.90
14749;DHT22;7466;53.574;9.976;2023-06-10T08:26:44;21.10;99.90
14749;DHT22;7466;53.574;9.976;2023-06-10T08:29:12;21.00;99.90
14749;DHT22;7466;53.574;9.976;2023-06-10T08:31:43;21.20;99.90
14749;DHT22;7466;53.574;9.976;2023-06-10T08:34:10;21.10;99.90
14749;DHT22;7466;53.574;9.976;2023-06-10T08:36:37;21.40;99.90
14749;DHT22;7466;53.574;9.976;2023-06-10T08:39:04;21.20;99.90
14749;DHT22;7466;53.574;9.976;2023-06-10T08:41:35;21.20;99.90
14749;DHT22;7466;53.574;9.976;2023-06-10T08:44:08;21.30;99.90
14749;DHT22;7466;53.574;9.976;2023-06-10T08:46:36;21.10;99.90
14749;DHT22;7466;53.574;9.976;2023-06-10T08:49:06;21.10;99.90
14749;DHT22;7466;53.574;9.976;2023-06-10T08:51:41;21.10;99.90
14749;DHT22;7466;53.574;9.976;2023-06-10T08:54:14;21.20;99.90
14749;DHT22;7466;53.574;9.976;2023-06-10T08:56:45;21.20;99.90
14749;DHT22;7466;53.574;9.976;2023-06-10T08:59:15;21.40;99.90
14749;DHT22;7466;53.574;9.976;2023-06-10T09:01:43;21.50;99.90
14749;DHT22;7466;53.574;9.976;2023-06-10T09:04:11;21.40;99.90
14749;DHT22;7466;53.574;9.976;2023-06-10T09:06:40;21.70;99.90
14749;DHT22;7466;53.574;9.976;2023-06-10T09:09:07;21.80;99.90
14749;DHT22;7466;53.574;9.976;2023-06-10T09:11:34;21.90;99.90
14749;DHT22;7466;53.574;9.976;2023-06-10T09:14:01;22.20;99.90
14749;DHT22;7466;53.574;9.976;2023-06-10T09:16:28;22.20;99.90
14749;DHT22;7466;53.574;9.976;2023-06-10T09:18:55;22.30;99.90
14749;DHT22;7466;53.574;9.976;2023-06-10T09:21:24;22.20;99.90
14749;DHT22;7466;53.574;9.976;2023-06-10T09:23:51;22.10;99.90
14749;DHT22;7466;53.574;9.976;2023-06-10T09:26:18;22.50;99.90
14749;DHT22;7466;53.574;9.976;2023-06-10T09:28:48;22.70;99.90
14749;DHT22;7466;53.574;9.976;2023-06-10T09:31:16;22.70;99.90
14749;DHT22;7466;53.574;9.976;2023-06-10T09:33:44;22.70;99.90
14749;DHT22;7466;53.574;9.976;2023-06-10T09:36:11;23.00;99.90
14749;DHT22;7466;53.574;9.976;2023-06-10T09:38:39;23.30;99.90
14749;DHT22;7466;53.574;9.976;2023-06-10T09:41:06;22.90;99.90
14749;DHT22;7466;53.574;9.976;2023-06-10T09:43:40;22.90;99.90
14749;DHT22;7466;53.574;9.976;2023-06-10T09:46:13;23.10;99.90
14749;DHT22;7466;53.574;9.976;2023-06-10T09:48:41;23.60;99.90
14749;DHT22;7466;53.574;9.976;2023-06-10T09:51:10;23.80;99.90
14749;DHT22;7466;53.574;9.976;2023-06-10T09:53:37;24.30;99.90
14749;DHT22;7466;53.574;9.976;2023-06-10T09:56:05;24.40;99.90
14749;DHT22;7466;53.574;9.976;2023-06-10T09:58:36;24.60;99.90
14749;DHT22;7466;53.574;9.976;2023-06-10T10:01:07;24.60;99.90
14749;DHT22;7466;53.574;9.976;2023-06-10T10:03:43;24.50;99.90
14749;DHT22;7466;53.574;9.976;2023-06-10T10:06:10;24.70;99.90
14749;DHT22;7466;53.574;9.976;2023-06-10T10:08:37;24.40;99.90
14749;DHT22;7466;53.574;9.976;2023-06-10T10:11:05;24.00;99.90
14749;DHT22;7466;53.574;9.976;2023-06-10T10:13:33;24.00;99.90
14749;DHT22;7466;53.574;9.976;2023-06-10T10:16:06;24.30;99.90
14749;DHT22;7466;53.574;9.976;2023-06-10T10:18:34;24.60;99.90
14749;DHT22;7466;53.574;9.976;2023-06-10T10:21:11;24.50;99.90
14749;DHT22;7466;53.574;9.976;2023-06-10T10:23:44;24.80;99.90
14749;DHT22;7466;53.574;9.976;2023-06-10T10:26:17;24.80;99.90
14749;DHT22;7466;53.574;9.976;2023-06-10T10:28:48;24.90;99.90
14749;DHT22;7466;53.574;9.976;2023-06-10T10:31:19;24.80;99.90
14749;DHT22;7466;53.574;9.976;2023-06-10T10:33:54;25.00;99.90
14749;DHT22;7466;53.574;9.976;2023-06-10T10:36:22;24.90;99.90
14749;DHT22;7466;53.574;9.976;2023-06-10T10:38:48;25.10;99.90
14749;DHT22;7466;53.574;9.976;2023-06-10T10:41:18;25.20;99.90
14749;DHT22;7466;53.574;9.976;2023-06-10T10:43:46;25.50;99.90
14749;DHT22;7466;53.574;9.976;2023-06-10T10:46:16;25.80;99.90
14749;DHT22;7466;53.574;9.976;2023-06-10T10:48:43;25.70;99.90
14749;DHT22;7466;53.574;9.976;2023-06-10T10:51:11;25.70;99.90
14749;DHT22;7466;53.574;9.976;2023-06-10T10:53:38;26.00;99.90
14749;DHT22;7466;53.574;9.976;2023-06-10T10:56:06;25.90;99.90
14749;DHT22;7466;53.574;9.976;2023-06-10T10:58:35;25.80;99.90
14749;DHT22;7466;53.574;9.976;2023-06-10T11:01:10;25.30;99.90
14749;DHT22;7466;53.574;9.976;2023-06-10T11:03:43;25.60;99.90
14749;DHT22;7466;53.574;9.976;2023-06-10T11:06:13;25.60;99.90
14749;DHT22;7466;53.574;9.976;2023-06-10T11:08:47;25.80;99.90
14749;DHT22;7466;53.574;9.976;2023-06-10T11:11:20;26.30;99.90
14749;DHT22;7466;53.574;9.976;2023-06-10T11:14:07;26.20;99.90
14749;DHT22;7466;53.574;9.976;2023-06-10T11:16:39;26.30;99.90
14749;DHT22;7466;53.574;9.976;2023-06-10T11:19:07;25.80;99.90
14749;DHT22;7466;53.574;9.976;2023-06-10T11:21:45;26.30;99.90
14749;DHT22;7466;53.574;9.976;2023-06-10T11:24:23;26.10;99.90
14749;DHT22;7466;53.574;9.976;2023-06-10T11:26:51;26.30;99.90
14749;DHT22;7466;53.574;9.976;2023-06-10T11:29:19;26.30;99.90
14749;DHT22;7466;53.574;9.976;2023-06-10T11:31:50;26.40;99.90
14749;DHT22;7466;53.574;9.976;2023-06-10T11:34:22;26.50;99.90
14749;DHT22;7466;53.574;9.976;2023-06-10T11:36:53;26.60;99.90
14749;DHT22;7466;53.574;9.976;2023-06-10T11:39:21;26.70;99.90
14749;DHT22;7466;53.574;9.976;2023-06-10T11:41:51;26.60;99.90
14749;DHT22;7466;53.574;9.976;2023-06-10T11:44:19;27.00;99.90
14749;DHT22;7466;53.574;9.976;2023-06-10T11:46:48;26.70;99.90
14749;DHT22;7466;53.574;9.976;2023-06-10T11:49:15;26.60;99.90
14749;DHT22;7466;53.574;9.976;2023-06-10T11:51:42;26.50;99.90
14749;DHT22;7466;53.574;9.976;2023-06-10T11:54:14;26.90;99.90
14749;DHT22;7466;53.574;9.976;2023-06-10T11:56:41;27.20;99.90
14749;DHT22;7466;53.574;9.976;2023-06-10T11:59:08;26.90;99.90
14749;DHT22;7466;53.574;9.976;2023-06-10T12:01:37;27.10;99.90
14749;DHT22;7466;53.574;9.976;2023-06-10T12:04:06;27.50;99.90
14749;DHT22;7466;53.574;9.976;2023-06-10T12:06:41;27.40;99.90
14749;DHT22;7466;53.574;9.976;2023-06-10T12:09:14;27.00;99.90
14749;DHT22;7466;53.574;9.976;2023-06-10T12:11:42;27.10;99.90
14749;DHT22;7466;53.574;9.976;2023-06-10T12:14:09;27.50;99.90
14749;DHT22;7466;53.574;9.976;2023-06-10T12:16:37;27.50;99.90
14749;DHT22;7466;53.574;9.976;2023-06-10T12:19:05;27.60;99.90
14749;DHT22;7466;53.574;9.976;2023-06-10T12:21:33;27.80;99.90
14749;DHT22;7466;53.574;9.976;2023-06-10T12:24:05;27.90;99.90
14749;DHT22;7466;53.574;9.976;2023-06-10T12:26:37;28.40;99.90
14749;DHT22;7466;53.574;9.976;2023-06-10T12:29:19;28.50;99.90
14749;DHT22;7466;53.574;9.976;2023-06-10T12:31:58;28.10;99.90
14749;DHT22;7466;53.574;9.976;2023-06-10T12:34:33;28.20;99.90
14749;DHT22;7466;53.574;9.976;2023-06-10T12:37:02;28.40;99.90
14749;DHT22;7466;53.574;9.976;2023-06-10T12:39:30;28.60;98.80
14749;DHT22;7466;53.574;9.976;2023-06-10T12:41:57;29.00;95.80
14749;DHT22;7466;53.574;9.976;2023-06-10T12:44:35;29.40;93.60
14749;DHT22;7466;53.574;9.976;2023-06-10T12:47:09;29.70;90.90
14749;DHT22;7466;53.574;9.976;2023-06-10T12:49:37;30.30;89.90
14749;DHT22;7466;53.574;9.976;2023-06-10T12:52:06;30.50;83.30
14749;DHT22;7466;53.574;9.976;2023-06-10T12:54:33;30.30;81.30
14749;DHT22;7466;53.574;9.976;2023-06-10T12:57:00;30.50;79.90
14749;DHT22;7466;53.574;9.976;2023-06-10T12:59:27;30.80;76.90
14749;DHT22;7466;53.574;9.976;2023-06-10T13:01:55;31.00;77.10
14749;DHT22;7466;53.574;9.976;2023-06-10T13:04:23;31.80;75.30
14749;DHT22;7466;53.574;9.976;2023-06-10T13:06:50;31.80;70.90
14749;DHT22;7466;53.574;9.976;2023-06-10T13:09:17;33.30;69.10
14749;DHT22;7466;53.574;9.976;2023-06-10T13:11:44;33.00;62.70
14749;DHT22;7466;53.574;9.976;2023-06-10T13:14:11;32.70;64.10
14749;DHT22;7466;53.574;9.976;2023-06-10T13:16:38;33.50;62.10
14749;DHT22;7466;53.574;9.976;2023-06-10T13:19:05;33.10;61.70
14749;DHT22;7466;53.574;9.976;2023-06-10T13:21:34;32.70;62.70
14749;DHT22;7466;53.574;9.976;2023-06-10T13:24:01;33.10;61.70
14749;DHT22;7466;53.574;9.976;2023-06-10T13:26:28;34.10;59.30
14749;DHT22;7466;53.574;9.976;2023-06-10T13:28:55;34.60;58.00
14749;DHT22;7466;53.574;9.976;2023-06-10T13:31:22;33.40;58.30
14749;DHT22;7466;53.574;9.976;2023-06-10T13:33:49;34.00;58.60
14749;DHT22;7466;53.574;9.976;2023-06-10T13:36:15;34.30;58.70
14749;DHT22;7466;53.574;9.976;2023-06-10T13:38:43;35.30;57.50
14749;DHT22;7466;53.574;9.976;2023-06-10T13:41:10;35.40;56.00
14749;DHT22;7466;53.574;9.976;2023-06-10T13:43:38;35.50;54.70
14749;DHT22;7466;53.574;9.976;2023-06-10T13:46:04;34.10;56.70
14749;DHT22;7466;53.574;9.976;2023-06-10T13:48:31;34.80;57.00
14749;DHT22;7466;53.574;9.976;2023-06-10T13:50:59;36.10;55.00
14749;DHT22;7466;53.574;9.976;2023-06-10T13:53:26;35.50;56.20
14749;DHT22;7466;53.574;9.976;2023-06-10T13:55:54;35.40;56.50
14749;DHT22;7466;53.574;9.976;2023-06-10T13:58:21;36.00;55.90
14749;DHT22;7466;53.574;9.976;2023-06-10T14:00:48;37.20;54.30
14749;DHT22;7466;53.574;9.976;2023-06-10T14:03:14;36.80;53.40
14749;DHT22;7466;53.574;9.976;2023-06-10T14:05:41;38.40;51.90
14749;DHT22;7466;53.574;9.976;2023-06-10T14:08:08;37.50;52.10
14749;DHT22;7466;53.574;9.976;2023-06-10T14:10:35;37.10;51.90
14749;DHT22;7466;53.574;9.976;2023-06-10T14:13:03;38.10;51.30
14749;DHT22;7466;53.574;9.976;2023-06-10T14:15:30;38.30;50.50
14749;DHT22;7466;53.574;9.976;2023-06-10T14:17:58;36.90;52.80
14749;DHT22;7466;53.574;9.976;2023-06-10T14:20:24;36.70;51.50
14749;DHT22;7466;53.574;9.976;2023-06-10T14:22:52;37.30;52.40
14749;DHT22;7466;53.574;9.976;2023-06-10T14:25:19;36.40;52.10
14749;DHT22;7466;53.574;9.976;2023-06-10T14:27:46;35.80;53.70
14749;DHT22;7466;53.574;9.976;2023-06-10T14:30:14;37.30;51.20
14749;DHT22;7466;53.574;9.976;2023-06-10T14:32:41;36.80;50.70
14749;DHT22;7466;53.574;9.976;2023-06-10T14:35:08;36.80;51.90
14749;DHT22;7466;53.574;9.976;2023-06-10T14:37:35;35.30;53.90
14749;DHT22;7466;53.574;9.976;2023-06-10T14:40:02;35.80;52.80
14749;DHT22;7466;53.574;9.976;2023-06-10T14:42:30;36.70;52.60
14749;DHT22;7466;53.574;9.976;2023-06-10T14:44:57;36.30;52.10
14749;DHT22;7466;53.574;9.976;2023-06-10T14:47:25;36.90;51.70
14749;DHT22;7466;53.574;9.976;2023-06-10T14:49:52;37.80;50.00
14749;DHT22;7466;53.574;9.976;2023-06-10T14:52:19;37.20;49.40
14749;DHT22;7466;53.574;9.976;2023-06-10T14:54:46;35.90;52.20
14749;DHT22;7466;53.574;9.976;2023-06-10T14:57:13;36.50;52.00
14749;DHT22;7466;53.574;9.976;2023-06-10T14:59:40;38.00;49.60
14749;DHT22;7466;53.574;9.976;2023-06-10T15:02:07;37.20;50.10
14749;DHT22;7466;53.574;9.976;2023-06-10T15:04:35;38.50;49.50
14749;DHT22;7466;53.574;9.976;2023-06-10T15:07:01;38.70;48.20
14749;DHT22;7466;53.574;9.976;2023-06-10T15:09:28;39.30;47.40
14749;DHT22;7466;53.574;9.976;2023-06-10T15:11:55;40.20;46.10
14749;DHT22;7466;53.574;9.976;2023-06-10T15:14:22;39.10;47.20
14749;DHT22;7466;53.574;9.976;2023-06-10T15:16:48;38.10;48.40
14749;DHT22;7466;53.574;9.976;2023-06-10T15:19:15;36.20;50.50
14749;DHT22;7466;53.574;9.976;2023-06-10T15:21:43;37.80;49.00
14749;DHT22;7466;53.574;9.976;2023-06-10T15:24:10;38.70;47.40
14749;DHT22;7466;53.574;9.976;2023-06-10T15:26:37;39.40;46.20
14749;DHT22;7466;53.574;9.976;2023-06-10T15:29:04;39.50;45.30
14749;DHT22;7466;53.574;9.976;2023-06-10T15:31:31;40.80;44.50
14749;DHT22;7466;53.574;9.976;2023-06-10T15:33:58;40.10;44.90
14749;DHT22;7466;53.574;9.976;2023-06-10T15:36:26;40.50;44.30
14749;DHT22;7466;53.574;9.976;2023-06-10T15:38:54;40.70;44.20
14749;DHT22;7466;53.574;9.976;2023-06-10T15:41:26;40.60;43.20
14749;DHT22;7466;53.574;9.976;2023-06-10T15:43:56;40.70;43.60
14749;DHT22;7466;53.574;9.976;2023-06-10T15:46:25;39.20;44.90
14749;DHT22;7466;53.574;9.976;2023-06-10T15:48:52;39.70;44.20
14749;DHT22;7466;53.574;9.976;2023-06-10T15:51:19;37.50;46.30